X  Luk Metar data        LELL Aeropuerto de Barcelona Josep Tarradellas
Temperatur
29°C Temperatur
15°C Duggpunkt
43% Fugtighed



Vind
22 KM/T
14 MPT
6 M/S
12 KNOB



110°
ØSØ
Nuværende forhold

Mostly Sunny Mest solrig
Tryk 1009 (hPa) - 29.8 (inHg)
Sigt 6 (mil) - 10 (km)
Lufthavn
Lufthavnskode LELL

Lokation: Aeropuerto de Barcelona Josep Tarradellas
Afstand: 20 (km)

Metar:
METAR LELL 211530Z 11012KT 060V140 9999 FEW045 29/15 Q1011

Tid: 21-07-2024 17:30 CEST